createdAt,value
2022-10-18T00:01:17.214Z,23.06
2022-10-18T00:04:06.450Z,23.11
2022-10-18T00:06:53.283Z,23.13
2022-10-18T00:09:40.714Z,23.15
2022-10-18T00:12:27.982Z,23.15
2022-10-18T00:15:15.353Z,23.20
2022-10-18T00:18:02.457Z,23.21
2022-10-18T00:21:00.012Z,23.20
2022-10-18T00:23:48.004Z,23.22
2022-10-18T00:26:34.965Z,23.18
2022-10-18T00:29:21.937Z,23.15
2022-10-18T00:32:09.354Z,23.14
2022-10-18T00:34:56.286Z,23.14
2022-10-18T00:37:45.085Z,23.16
2022-10-18T00:40:32.121Z,23.14
2022-10-18T00:43:19.558Z,23.13
2022-10-18T00:46:06.754Z,23.09
2022-10-18T00:51:51.891Z,23.04
2022-10-18T00:54:43.101Z,23.01
2022-10-18T00:57:30.367Z,23.01
2022-10-18T01:00:18.398Z,23.00
2022-10-18T01:03:05.196Z,23.00
2022-10-18T01:05:52.617Z,22.97
2022-10-18T01:09:03.247Z,22.89
2022-10-18T01:12:07.315Z,22.82
2022-10-18T01:15:00.410Z,22.70
2022-10-18T01:17:57.034Z,22.64
2022-10-18T01:21:09.856Z,22.63
2022-10-18T01:24:33.257Z,22.62
2022-10-18T01:27:34.664Z,22.56
2022-10-18T01:30:53.638Z,22.55
2022-10-18T01:33:44.025Z,22.58
2022-10-18T01:36:35.721Z,22.54
2022-10-18T01:39:27.655Z,22.51
2022-10-18T01:42:17.921Z,22.48
2022-10-18T01:45:05.891Z,22.51
2022-10-18T01:47:55.950Z,22.57
2022-10-18T01:50:43.289Z,22.66
2022-10-18T01:53:32.447Z,22.73
2022-10-18T01:56:25.391Z,22.85
2022-10-18T01:59:34.404Z,22.92
2022-10-18T02:02:34.225Z,22.98
2022-10-18T02:05:31.235Z,23.00
2022-10-18T02:08:28.791Z,22.99
2022-10-18T02:11:17.628Z,23.04
2022-10-18T02:14:08.988Z,23.05
2022-10-18T02:16:58.099Z,23.06
2022-10-18T02:19:47.769Z,23.05
2022-10-18T02:22:38.161Z,23.06
2022-10-18T02:25:28.377Z,23.06
2022-10-18T02:28:16.856Z,23.06
2022-10-18T02:31:11.814Z,23.06
2022-10-18T02:34:02.094Z,23.06
2022-10-18T02:36:52.746Z,23.04
2022-10-18T02:39:45.237Z,23.02
2022-10-18T02:42:35.826Z,23.00
2022-10-18T02:45:23.679Z,23.00
2022-10-18T02:48:10.858Z,22.98
2022-10-18T02:50:58.236Z,22.99
2022-10-18T02:53:45.164Z,22.97
2022-10-18T02:56:33.827Z,22.98
2022-10-18T02:59:20.725Z,22.97
2022-10-18T03:02:07.937Z,22.96
2022-10-18T03:04:54.661Z,22.93
2022-10-18T03:07:42.005Z,22.92
2022-10-18T03:10:28.676Z,22.93
2022-10-18T03:13:17.324Z,22.91
2022-10-18T03:16:04.742Z,22.90
2022-10-18T03:18:51.802Z,22.92
2022-10-18T03:21:38.877Z,22.93
2022-10-18T03:24:26.262Z,22.93
2022-10-18T03:27:13.044Z,22.92
2022-10-18T03:30:05.935Z,22.90
2022-10-18T03:32:54.271Z,22.93
2022-10-18T03:35:41.062Z,22.94
2022-10-18T03:38:31.246Z,22.94
2022-10-18T03:41:18.851Z,22.94
2022-10-18T03:44:07.845Z,22.97
2022-10-18T03:46:56.822Z,22.98
2022-10-18T03:49:43.713Z,23.00
2022-10-18T03:52:31.672Z,23.00
2022-10-18T03:55:19.017Z,23.02
2022-10-18T03:58:06.447Z,23.02
2022-10-18T04:00:54.481Z,23.02
2022-10-18T04:03:42.942Z,23.04
2022-10-18T04:06:29.815Z,23.02
2022-10-18T04:09:17.206Z,23.03
2022-10-18T04:12:04.344Z,23.05
2022-10-18T04:14:51.844Z,23.06
2022-10-18T04:17:38.695Z,23.01
2022-10-18T04:20:27.328Z,23.04
2022-10-18T04:23:13.976Z,23.08
2022-10-18T04:26:00.917Z,23.13
2022-10-18T04:28:47.792Z,23.17
2022-10-18T04:31:34.834Z,23.18
2022-10-18T04:34:21.688Z,23.18
2022-10-18T04:37:10.201Z,23.17
2022-10-18T04:39:57.188Z,23.18
2022-10-18T04:42:44.094Z,23.18
2022-10-18T04:45:30.973Z,23.19
2022-10-18T04:48:18.182Z,23.16
2022-10-18T04:51:04.937Z,23.15
2022-10-18T04:53:53.356Z,23.14
2022-10-18T04:56:40.073Z,23.14
2022-10-18T04:59:26.979Z,23.13
2022-10-18T05:02:13.928Z,23.16
2022-10-18T05:05:00.731Z,23.17
2022-10-18T05:07:47.533Z,23.19
2022-10-18T05:10:35.925Z,23.14
2022-10-18T05:13:22.628Z,23.05
2022-10-18T05:16:09.533Z,23.05
2022-10-18T05:18:56.450Z,23.05
2022-10-18T05:21:43.344Z,23.05
2022-10-18T05:24:30.082Z,23.06
2022-10-18T05:27:18.128Z,23.07
2022-10-18T05:30:06.010Z,23.06
2022-10-18T05:32:53.223Z,23.03
2022-10-18T05:35:40.003Z,22.98
2022-10-18T05:38:27.516Z,22.97
2022-10-18T05:41:14.147Z,22.84
2022-10-18T05:44:06.045Z,22.87
2022-10-18T05:46:52.946Z,22.88
2022-10-18T05:49:40.003Z,22.88
2022-10-18T05:52:26.809Z,22.88
2022-10-18T05:55:13.691Z,22.81
2022-10-18T05:58:00.498Z,22.75
2022-10-18T06:00:49.167Z,22.77
2022-10-18T06:03:36.454Z,22.79
2022-10-18T06:06:23.371Z,22.73
2022-10-18T06:09:11.013Z,22.72
2022-10-18T06:11:58.508Z,22.74
2022-10-18T06:14:45.515Z,22.76
2022-10-18T06:17:34.044Z,22.73
2022-10-18T06:20:21.412Z,22.61
2022-10-18T06:23:07.979Z,22.64
2022-10-18T06:25:54.898Z,22.66
2022-10-18T06:28:41.841Z,22.71
2022-10-18T06:31:29.080Z,22.74
2022-10-18T06:34:17.395Z,22.75
2022-10-18T06:37:04.793Z,22.74
2022-10-18T06:39:51.568Z,22.72
2022-10-18T06:42:38.795Z,22.72
2022-10-18T06:45:25.802Z,22.67
2022-10-18T06:48:12.731Z,22.63
2022-10-18T06:51:02.354Z,22.61
2022-10-18T06:53:59.628Z,22.64
2022-10-18T06:56:57.766Z,22.65
2022-10-18T06:59:45.182Z,22.61
2022-10-18T07:02:32.127Z,22.56
2022-10-18T07:05:19.585Z,22.49
2022-10-18T07:08:08.001Z,22.45
2022-10-18T07:10:55.463Z,22.44
2022-10-18T07:13:42.062Z,22.51
2022-10-18T07:16:28.906Z,22.51
2022-10-18T07:19:16.392Z,22.48
2022-10-18T07:22:03.251Z,22.41
2022-10-18T07:24:51.385Z,22.41
2022-10-18T07:27:39.287Z,22.36
2022-10-18T07:30:26.263Z,22.29
2022-10-18T07:33:14.107Z,22.19
2022-10-18T07:36:02.244Z,22.16
2022-10-18T07:38:49.465Z,22.12
2022-10-18T07:41:38.112Z,22.11
2022-10-18T07:44:26.035Z,22.18
2022-10-18T07:47:13.336Z,22.17
2022-10-18T07:50:01.069Z,22.13
2022-10-18T07:52:48.496Z,22.17
2022-10-18T07:55:36.118Z,22.22
2022-10-18T07:58:24.455Z,22.21
2022-10-18T08:01:12.607Z,22.22
2022-10-18T08:04:06.188Z,22.19
2022-10-18T08:06:54.170Z,22.17
2022-10-18T08:09:41.200Z,22.15
2022-10-18T08:12:27.886Z,22.08
2022-10-18T08:15:16.831Z,21.94
2022-10-18T08:18:03.849Z,21.92
2022-10-18T08:20:50.755Z,21.87
2022-10-18T08:23:38.388Z,21.84
2022-10-18T08:26:26.034Z,21.83
2022-10-18T08:29:31.634Z,21.81
2022-10-18T08:32:20.605Z,21.77
2022-10-18T08:35:09.450Z,21.73
2022-10-18T08:37:56.547Z,21.80
2022-10-18T08:40:45.003Z,21.76
2022-10-18T08:43:39.779Z,21.67
2022-10-18T08:46:26.875Z,21.78
2022-10-18T08:49:24.015Z,21.72
2022-10-18T08:52:20.566Z,21.84
2022-10-18T08:55:15.547Z,21.73
2022-10-18T08:58:02.571Z,21.83
2022-10-18T09:01:00.255Z,21.80
2022-10-18T09:06:49.878Z,21.78
2022-10-18T09:09:43.642Z,21.82
2022-10-18T09:12:50.960Z,21.82
2022-10-18T09:15:48.276Z,21.83
2022-10-18T09:18:57.681Z,21.78
2022-10-18T09:21:52.453Z,21.71
2022-10-18T09:24:41.419Z,21.76
2022-10-18T09:27:46.775Z,21.72
2022-10-18T09:30:42.569Z,21.74
2022-10-18T09:33:40.244Z,21.83
2022-10-18T09:36:35.503Z,21.87
2022-10-18T09:39:29.467Z,21.97
2022-10-18T09:42:26.606Z,22.15
2022-10-18T09:45:25.183Z,22.16
2022-10-18T09:48:16.684Z,22.33
2022-10-18T09:51:06.868Z,22.47
2022-10-18T09:54:06.795Z,22.67
2022-10-18T09:57:02.268Z,22.80
2022-10-18T09:59:50.308Z,22.87
2022-10-18T10:02:37.348Z,22.90
2022-10-18T10:05:24.742Z,22.87
2022-10-18T10:08:12.267Z,22.83
2022-10-18T10:10:59.260Z,22.94
2022-10-18T10:13:48.720Z,22.94
2022-10-18T10:16:44.847Z,23.04
2022-10-18T10:19:35.736Z,23.13
2022-10-18T10:22:28.397Z,23.25
2022-10-18T10:25:31.970Z,23.33
2022-10-18T10:28:23.389Z,23.18
2022-10-18T10:31:28.922Z,23.14
2022-10-18T10:34:21.261Z,23.09
2022-10-18T10:37:25.644Z,23.20
2022-10-18T10:40:25.118Z,23.27
2022-10-18T10:43:36.472Z,23.31
2022-10-18T10:46:35.586Z,23.34
2022-10-18T10:49:41.246Z,23.40
2022-10-18T10:52:31.726Z,23.44
2022-10-18T10:55:34.793Z,23.53
2022-10-18T10:58:23.628Z,23.62
2022-10-18T11:01:32.672Z,23.62
2022-10-18T11:04:25.817Z,23.65
2022-10-18T11:07:24.391Z,23.53
2022-10-18T11:10:16.627Z,23.42
2022-10-18T11:13:18.468Z,23.38
2022-10-18T11:16:13.239Z,23.38
2022-10-18T11:19:04.134Z,23.36
2022-10-18T11:21:53.926Z,23.30
2022-10-18T11:24:41.005Z,23.36
2022-10-18T11:27:35.186Z,23.37
2022-10-18T11:30:38.058Z,23.37
2022-10-18T11:33:56.332Z,23.38
2022-10-18T11:36:56.844Z,23.30
2022-10-18T11:40:04.915Z,23.23
2022-10-18T11:43:01.818Z,23.30
2022-10-18T11:45:56.811Z,23.29
2022-10-18T11:49:01.117Z,23.30
2022-10-18T11:52:08.380Z,23.30
2022-10-18T11:55:12.516Z,23.27
2022-10-18T11:58:07.998Z,23.20
2022-10-18T12:01:02.588Z,23.15
2022-10-18T12:03:59.695Z,23.12
2022-10-18T12:06:50.409Z,23.18
2022-10-18T12:09:41.036Z,23.17
2022-10-18T12:12:33.294Z,23.22
2022-10-18T12:15:23.898Z,23.20
2022-10-18T12:18:15.836Z,23.18
2022-10-18T12:21:03.650Z,23.18
2022-10-18T12:23:54.751Z,23.20
2022-10-18T12:26:43.507Z,23.23
2022-10-18T12:29:38.179Z,23.31
2022-10-18T12:32:30.923Z,23.37
2022-10-18T12:35:21.716Z,23.42
2022-10-18T12:38:21.222Z,23.61
2022-10-18T12:41:08.342Z,23.62
2022-10-18T12:44:02.300Z,23.59
2022-10-18T12:46:45.740Z,23.68
2022-10-18T12:49:18.122Z,23.89
2022-10-18T12:51:52.920Z,23.93
2022-10-18T12:54:26.252Z,24.05
2022-10-18T12:56:54.496Z,24.30
2022-10-18T12:59:54.818Z,24.35
2022-10-18T13:02:34.117Z,24.53
2022-10-18T13:05:53.050Z,24.65
2022-10-18T13:08:45.921Z,24.37
2022-10-18T13:11:35.798Z,24.46
2022-10-18T13:14:27.317Z,24.44
2022-10-18T13:17:06.383Z,24.37
2022-10-18T13:19:51.362Z,24.20
2022-10-18T13:22:36.177Z,24.11
2022-10-18T13:25:13.147Z,24.11
2022-10-18T13:27:48.584Z,24.15
2022-10-18T13:30:34.068Z,24.25
2022-10-18T13:33:23.419Z,24.32
2022-10-18T13:35:55.484Z,24.34
2022-10-18T13:38:42.784Z,24.54
2022-10-18T13:41:12.852Z,24.59
2022-10-18T13:44:11.409Z,24.46
2022-10-18T13:47:19.610Z,24.48
2022-10-18T13:50:11.862Z,24.58
2022-10-18T13:53:20.527Z,24.49
2022-10-18T13:56:23.397Z,24.55
2022-10-18T13:59:14.360Z,24.33
2022-10-18T14:01:55.102Z,24.18
2022-10-18T14:04:47.925Z,24.02
2022-10-18T14:07:20.353Z,24.00
2022-10-18T14:10:03.432Z,23.82
2022-10-18T14:12:45.910Z,23.83
2022-10-18T14:15:19.502Z,23.82
2022-10-18T14:17:52.293Z,23.75
2022-10-18T14:20:29.924Z,23.71
2022-10-18T14:23:10.568Z,23.65
2022-10-18T14:25:46.198Z,23.68
2022-10-18T14:28:27.415Z,23.57
2022-10-18T14:31:09.132Z,23.56
2022-10-18T14:33:39.776Z,23.58
2022-10-18T14:36:15.574Z,23.58
2022-10-18T14:38:58.589Z,23.57
2022-10-18T14:41:31.532Z,23.52
2022-10-18T14:44:19.435Z,23.51
2022-10-18T14:46:50.140Z,23.52
2022-10-18T14:49:20.356Z,23.49
2022-10-18T14:51:52.575Z,23.45
2022-10-18T14:54:31.851Z,23.44
2022-10-18T14:57:05.250Z,23.39
2022-10-18T14:59:42.554Z,23.35
2022-10-18T15:02:15.596Z,23.34
2022-10-18T15:04:45.316Z,23.35
2022-10-18T15:07:17.239Z,23.35
2022-10-18T15:09:48.731Z,23.33
2022-10-18T15:12:18.974Z,23.33
2022-10-18T15:14:52.166Z,23.33
2022-10-18T15:17:27.236Z,23.36
2022-10-18T15:20:01.951Z,23.39
2022-10-18T15:22:34.529Z,23.35
2022-10-18T15:25:19.168Z,23.30
2022-10-18T15:27:50.245Z,23.33
2022-10-18T15:30:22.917Z,23.30
2022-10-18T15:32:53.696Z,23.19
2022-10-18T15:35:26.749Z,23.09
2022-10-18T15:37:57.189Z,23.00
2022-10-18T15:40:41.175Z,22.92
2022-10-18T15:43:36.117Z,22.91
2022-10-18T15:46:07.317Z,22.88
2022-10-18T15:48:39.935Z,22.80
2022-10-18T15:51:09.242Z,22.76
2022-10-18T15:53:46.323Z,22.74
2022-10-18T15:56:34.044Z,22.68
2022-10-18T15:59:05.643Z,22.62
2022-10-18T16:01:39.396Z,22.48
2022-10-18T16:04:15.023Z,22.42
2022-10-18T16:06:43.198Z,22.33
2022-10-18T16:09:16.706Z,22.30
2022-10-18T16:11:47.237Z,22.25
2022-10-18T16:14:15.597Z,22.17
2022-10-18T16:16:43.958Z,22.10
2022-10-18T16:19:15.763Z,22.05
2022-10-18T16:21:44.804Z,21.97
2022-10-18T16:24:13.285Z,21.92
2022-10-18T16:26:41.635Z,21.86
2022-10-18T16:29:15.658Z,21.84
2022-10-18T16:31:44.132Z,21.79
2022-10-18T16:34:14.971Z,21.75
2022-10-18T16:36:43.099Z,21.74
2022-10-18T16:39:16.292Z,21.76
2022-10-18T16:46:42.664Z,21.77
2022-10-18T16:51:52.996Z,21.75
2022-10-18T16:54:21.855Z,21.74
2022-10-18T16:56:50.272Z,21.73
2022-10-18T16:59:25.133Z,21.69
2022-10-18T17:01:53.730Z,21.71
2022-10-18T17:04:22.082Z,21.69
2022-10-18T17:06:50.609Z,21.72
2022-10-18T17:09:19.086Z,21.72
2022-10-18T17:11:47.384Z,21.72
2022-10-18T17:14:15.561Z,21.74
2022-10-18T17:16:48.281Z,21.75
2022-10-18T17:19:21.331Z,21.72
2022-10-18T17:21:49.781Z,21.72
2022-10-18T17:24:18.056Z,21.73
2022-10-18T17:26:46.459Z,21.70
2022-10-18T17:29:15.026Z,21.69
2022-10-18T17:31:43.638Z,21.64
2022-10-18T17:34:21.349Z,21.63
2022-10-18T17:36:51.562Z,21.64
2022-10-18T17:39:20.230Z,21.62
2022-10-18T17:41:48.642Z,21.64
2022-10-18T17:44:17.355Z,21.65
2022-10-18T17:46:45.767Z,21.60
2022-10-18T17:49:26.656Z,21.59
2022-10-18T17:51:56.889Z,21.55
2022-10-18T17:54:25.392Z,21.45
2022-10-18T17:56:54.641Z,21.37
2022-10-18T17:59:23.345Z,21.33
2022-10-18T18:01:51.911Z,21.30
2022-10-18T18:04:21.825Z,21.25
2022-10-18T18:06:52.251Z,21.18
2022-10-18T18:09:21.249Z,21.08
2022-10-18T18:11:50.456Z,21.01
2022-10-18T18:14:19.126Z,20.93
2022-10-18T18:16:48.302Z,20.85
2022-10-18T18:19:18.995Z,20.77
2022-10-18T18:21:49.492Z,20.72
2022-10-18T18:24:20.160Z,20.66
2022-10-18T18:26:48.819Z,20.57
2022-10-18T18:29:17.080Z,20.48
2022-10-18T18:31:45.663Z,20.46
2022-10-18T18:34:14.726Z,20.43
2022-10-18T18:36:44.198Z,20.38
2022-10-18T18:39:19.570Z,20.34
2022-10-18T18:41:49.691Z,20.28
2022-10-18T18:44:19.220Z,20.20
2022-10-18T18:46:48.815Z,20.14
2022-10-18T18:49:17.096Z,20.10
2022-10-18T18:51:45.426Z,20.06
2022-10-18T18:54:17.089Z,20.01
2022-10-18T18:56:45.268Z,19.94
2022-10-18T18:59:15.182Z,19.88
2022-10-18T19:01:44.327Z,19.81
2022-10-18T19:04:13.075Z,19.76
2022-10-18T19:06:44.046Z,19.71
2022-10-18T19:09:19.274Z,19.67
2022-10-18T19:11:50.707Z,19.63
2022-10-18T19:14:19.838Z,19.55
2022-10-18T19:16:49.788Z,19.50
2022-10-18T19:19:19.753Z,19.47
2022-10-18T19:21:51.344Z,19.45
2022-10-18T19:24:20.671Z,19.32
2022-10-18T19:26:52.534Z,19.24
2022-10-18T19:29:23.292Z,19.16
2022-10-18T19:31:53.187Z,19.09
2022-10-18T19:34:22.782Z,19.10
2022-10-18T19:36:51.698Z,19.07
2022-10-18T19:39:22.438Z,19.08
2022-10-18T19:41:55.225Z,19.09
2022-10-18T19:44:25.916Z,19.09
2022-10-18T19:46:54.731Z,19.09
2022-10-18T19:49:23.279Z,19.10
2022-10-18T19:51:51.827Z,19.03
2022-10-18T19:54:20.218Z,19.00
2022-10-18T19:56:48.532Z,18.92
2022-10-18T19:59:18.867Z,18.86
2022-10-18T20:01:47.322Z,18.80
2022-10-18T20:04:16.779Z,18.76
2022-10-18T20:06:45.403Z,18.71
2022-10-18T20:09:17.888Z,18.64
2022-10-18T20:11:49.343Z,18.55
2022-10-18T20:14:18.894Z,18.46
2022-10-18T20:16:47.130Z,18.39
2022-10-18T20:19:15.611Z,18.37
2022-10-18T20:21:43.874Z,18.41
2022-10-18T20:24:12.589Z,18.39
2022-10-18T20:26:41.219Z,18.36
2022-10-18T20:29:09.663Z,18.26
2022-10-18T20:31:39.542Z,18.26
2022-10-18T20:34:12.482Z,18.22
2022-10-18T20:36:41.809Z,18.21
2022-10-18T20:39:10.811Z,18.24
2022-10-18T20:41:41.144Z,18.23
2022-10-18T20:44:14.433Z,18.24
2022-10-18T20:46:44.968Z,18.26
2022-10-18T20:49:15.562Z,18.28
2022-10-18T20:51:43.991Z,18.28
2022-10-18T20:54:13.401Z,18.24
2022-10-18T20:56:42.399Z,18.30
2022-10-18T20:59:11.529Z,18.30
2022-10-18T21:01:40.357Z,18.24
2022-10-18T21:04:11.847Z,18.17
2022-10-18T21:06:42.052Z,18.09
2022-10-18T21:09:14.152Z,18.08
2022-10-18T21:11:44.873Z,18.08
2022-10-18T21:14:15.204Z,18.04
2022-10-18T21:16:44.098Z,18.03
2022-10-18T21:19:15.649Z,18.07
2022-10-18T21:21:45.877Z,17.96
2022-10-18T21:24:15.196Z,17.93
2022-10-18T21:26:43.945Z,17.98
2022-10-18T21:29:15.943Z,17.93
2022-10-18T21:31:47.007Z,17.92
2022-10-18T21:34:18.418Z,17.81
2022-10-18T21:36:48.493Z,17.80
2022-10-18T21:39:18.432Z,17.76
2022-10-18T21:41:47.279Z,17.74
2022-10-18T21:44:15.895Z,17.69
2022-10-18T21:46:44.371Z,17.68
2022-10-18T21:49:13.656Z,17.60
2022-10-18T21:51:43.184Z,17.61
2022-10-18T21:54:14.467Z,17.52
2022-10-18T21:56:43.205Z,17.35
2022-10-18T21:59:12.507Z,17.32
2022-10-18T22:01:43.568Z,17.46
2022-10-18T22:04:20.097Z,17.44
2022-10-18T22:06:49.960Z,17.47
2022-10-18T22:09:18.770Z,17.45
2022-10-18T22:11:49.393Z,17.40
2022-10-18T22:14:17.986Z,17.37
2022-10-18T22:16:46.532Z,17.31
2022-10-18T22:19:14.772Z,17.20
2022-10-18T22:21:43.010Z,17.12
2022-10-18T22:24:12.904Z,17.13
2022-10-18T22:26:42.949Z,17.10
2022-10-18T22:29:13.930Z,17.04
2022-10-18T22:31:45.220Z,17.00
2022-10-18T22:34:16.165Z,16.93
2022-10-18T22:36:44.497Z,16.88
2022-10-18T22:39:15.372Z,16.80
2022-10-18T22:41:44.517Z,16.73
2022-10-18T22:44:13.808Z,16.66
2022-10-18T22:46:42.409Z,16.62
2022-10-18T22:49:12.634Z,16.60
2022-10-18T22:51:41.121Z,16.55
2022-10-18T22:54:09.346Z,16.45
2022-10-18T22:56:39.298Z,16.38
2022-10-18T22:59:07.513Z,16.46
2022-10-18T23:01:35.988Z,16.46
2022-10-18T23:04:05.407Z,16.45
2022-10-18T23:06:35.188Z,16.40
2022-10-18T23:09:05.925Z,16.39
2022-10-18T23:11:35.355Z,16.29
2022-10-18T23:14:07.069Z,16.17
2022-10-18T23:16:36.127Z,16.10
2022-10-18T23:19:04.964Z,16.07
2022-10-18T23:21:35.416Z,15.98
2022-10-18T23:24:04.357Z,15.95
2022-10-18T23:26:32.978Z,15.93
2022-10-18T23:29:01.615Z,15.94
2022-10-18T23:31:33.102Z,15.92
2022-10-18T23:34:03.070Z,15.88
2022-10-18T23:36:32.655Z,15.88
2022-10-18T23:39:01.130Z,15.85
2022-10-18T23:41:29.385Z,15.82
2022-10-18T23:43:57.987Z,15.77
2022-10-18T23:46:26.243Z,15.69
2022-10-18T23:48:55.866Z,15.59
2022-10-18T23:51:24.412Z,15.49
2022-10-18T23:53:52.619Z,15.45
2022-10-18T23:56:21.200Z,15.45
2022-10-18T23:58:49.723Z,15.41
